createdAt,value
2018-05-26T00:01:09.758Z,98617.47
2018-05-26T00:03:37.227Z,98621.43
2018-05-26T00:06:04.718Z,98621.95
2018-05-26T00:08:32.186Z,98623.07
2018-05-26T00:10:59.683Z,98631.25
2018-05-26T00:13:27.246Z,98624.26
2018-05-26T00:15:54.738Z,98629.51
2018-05-26T00:18:22.214Z,98630.86
2018-05-26T00:20:49.706Z,98635.67
2018-05-26T00:23:17.193Z,98640.08
2018-05-26T00:25:44.686Z,98642.10
2018-05-26T00:28:12.341Z,98643.20
2018-05-26T00:30:39.838Z,98643.20
2018-05-26T00:33:07.306Z,98646.06
2018-05-26T00:35:34.905Z,98644.88
2018-05-26T00:38:02.366Z,98636.27
2018-05-26T00:40:29.846Z,98637.28
2018-05-26T00:42:57.487Z,98634.98
2018-05-26T00:45:24.971Z,98636.42
2018-05-26T00:47:53.575Z,98636.86
2018-05-26T00:50:21.038Z,98638.19
2018-05-26T00:52:48.522Z,98640.55
2018-05-26T00:55:15.982Z,98643.16
2018-05-26T00:57:43.562Z,98646.03
2018-05-26T01:00:11.022Z,98640.53
2018-05-26T01:02:38.514Z,98639.13
2018-05-26T01:05:05.998Z,98640.19
2018-05-26T01:07:33.483Z,98640.26
2018-05-26T01:10:00.958Z,98644.23
2018-05-26T01:12:28.446Z,98638.30
2018-05-26T01:14:55.975Z,98647.84
2018-05-26T01:17:23.464Z,98638.73
2018-05-26T01:19:50.934Z,98636.78
2018-05-26T01:22:18.417Z,98639.67
2018-05-26T01:24:45.884Z,98642.27
2018-05-26T01:27:13.362Z,98649.42
2018-05-26T01:29:40.919Z,98642.82
2018-05-26T01:32:08.404Z,98637.06
2018-05-26T01:34:35.934Z,98637.23
2018-05-26T01:37:03.603Z,98637.16
2018-05-26T01:39:31.066Z,98634.38
2018-05-26T01:41:58.555Z,98642.16
2018-05-26T01:44:26.023Z,98635.28
2018-05-26T01:46:53.518Z,98631.63
2018-05-26T01:49:21.850Z,98622.52
2018-05-26T01:51:49.412Z,98626.98
2018-05-26T01:54:16.879Z,98629.11
2018-05-26T01:56:44.387Z,98633.84
2018-05-26T01:59:11.855Z,98636.73
2018-05-26T02:01:39.313Z,98637.08
2018-05-26T02:04:06.804Z,98634.65
2018-05-26T02:06:34.270Z,98640.68
2018-05-26T02:09:01.806Z,98639.16
2018-05-26T02:11:29.326Z,98634.56
2018-05-26T02:13:56.806Z,98632.47
2018-05-26T02:16:24.359Z,98628.15
2018-05-26T02:18:51.841Z,98630.82
2018-05-26T02:21:19.311Z,98633.06
2018-05-26T02:23:46.790Z,98631.30
2018-05-26T02:26:14.282Z,98625.36
2018-05-26T02:28:41.888Z,98624.30
2018-05-26T02:31:09.350Z,98628.25
2018-05-26T02:33:36.866Z,98637.39
2018-05-26T02:36:04.362Z,98644.13
2018-05-26T02:38:31.843Z,98642.22
2018-05-26T02:40:59.306Z,98649.61
2018-05-26T02:43:26.792Z,98649.29
2018-05-26T02:45:54.264Z,98652.91
2018-05-26T02:48:21.811Z,98650.27
2018-05-26T02:50:49.489Z,98649.72
2018-05-26T02:53:16.979Z,98652.64
2018-05-26T02:55:44.504Z,98654.13
2018-05-26T02:58:11.976Z,98658.54
2018-05-26T03:00:39.457Z,98652.03
2018-05-26T03:03:06.970Z,98650.78
2018-05-26T03:05:40.182Z,98649.06
2018-05-26T03:08:13.354Z,98646.63
2018-05-26T03:10:46.615Z,98646.86
2018-05-26T03:13:19.786Z,98649.19
2018-05-26T03:15:48.194Z,98656.36
2018-05-26T03:18:15.669Z,98652.96
2018-05-26T03:20:43.154Z,98660.13
2018-05-26T03:23:10.632Z,98655.75
2018-05-26T03:25:38.115Z,98658.08
2018-05-26T03:28:05.577Z,98662.81
2018-05-26T03:30:33.057Z,98663.79
2018-05-26T03:33:00.518Z,98662.40
2018-05-26T03:35:28.019Z,98658.48
2018-05-26T03:37:55.479Z,98665.04
2018-05-26T03:40:23.478Z,98665.67
2018-05-26T03:42:50.937Z,98668.38
2018-05-26T03:45:18.414Z,98668.73
2018-05-26T03:47:49.622Z,98669.75
2018-05-26T03:50:17.130Z,98675.87
2018-05-26T03:52:44.586Z,98675.37
2018-05-26T03:58:24.971Z,98680.77
2018-05-26T04:00:52.458Z,98681.13
2018-05-26T04:03:19.922Z,98690.05
2018-05-26T04:05:47.467Z,98689.46
2018-05-26T04:08:14.922Z,98687.46
2018-05-26T04:10:42.502Z,98688.02
2018-05-26T04:13:09.960Z,98692.91
2018-05-26T04:15:37.441Z,98689.66
2018-05-26T04:18:04.902Z,98687.48
2018-05-26T04:20:32.383Z,98686.83
2018-05-26T04:22:59.841Z,98690.19
2018-05-26T04:25:27.326Z,98689.45
2018-05-26T04:27:54.810Z,98685.59
2018-05-26T04:30:22.295Z,98686.81
2018-05-26T04:32:49.751Z,98685.75
2018-05-26T04:35:17.343Z,98689.80
2018-05-26T04:37:44.802Z,98690.96
2018-05-26T04:40:12.282Z,98702.08
2018-05-26T04:42:39.741Z,98701.59
2018-05-26T04:45:07.225Z,98701.72
2018-05-26T04:47:34.775Z,98700.83
2018-05-26T04:50:02.269Z,98707.01
2018-05-26T04:52:29.834Z,98702.66
2018-05-26T04:54:57.300Z,98697.14
2018-05-26T04:57:24.760Z,98697.65
2018-05-26T04:59:52.234Z,98698.42
2018-05-26T05:02:19.698Z,98698.55
2018-05-26T05:04:50.613Z,98705.90
2018-05-26T05:07:18.069Z,98706.85
2018-05-26T05:09:45.534Z,98713.55
2018-05-26T05:12:13.014Z,98717.17
2018-05-26T05:14:40.561Z,98717.02
2018-05-26T05:17:08.052Z,98719.14
2018-05-26T05:19:35.522Z,98725.73
2018-05-26T05:22:03.054Z,98716.48
2018-05-26T05:24:30.695Z,98720.45
2018-05-26T05:26:58.177Z,98716.94
2018-05-26T05:29:25.645Z,98716.02
2018-05-26T05:31:53.247Z,98716.17
2018-05-26T05:34:20.726Z,98717.20
2018-05-26T05:36:48.286Z,98719.58
2018-05-26T05:39:15.921Z,98726.00
2018-05-26T05:41:43.408Z,98729.67
2018-05-26T05:46:38.956Z,98728.98
2018-05-26T05:49:06.421Z,98726.80
2018-05-26T05:51:33.897Z,98726.45
2018-05-26T05:54:01.381Z,98728.37
2018-05-26T05:56:28.898Z,98722.68
2018-05-26T05:58:56.342Z,98735.78
2018-05-26T06:01:23.829Z,98738.45
2018-05-26T06:03:51.285Z,98738.38
2018-05-26T06:06:19.119Z,98732.98
2018-05-26T06:08:46.642Z,98736.98
2018-05-26T06:11:14.273Z,98740.36
2018-05-26T06:13:41.753Z,98741.91
2018-05-26T06:16:09.235Z,98744.75
2018-05-26T06:18:36.719Z,98741.20
2018-05-26T06:21:04.178Z,98744.16
2018-05-26T06:23:32.146Z,98742.63
2018-05-26T06:25:59.602Z,98748.59
2018-05-26T06:28:27.103Z,98743.95
2018-05-26T06:30:54.578Z,98740.48
2018-05-26T06:33:22.058Z,98739.98
2018-05-26T06:35:49.567Z,98739.23
2018-05-26T06:38:17.014Z,98747.60
2018-05-26T06:40:44.911Z,98744.30
2018-05-26T06:43:12.411Z,98743.97
2018-05-26T06:45:39.889Z,98739.47
2018-05-26T06:48:07.369Z,98737.20
2018-05-26T06:50:34.866Z,98736.61
2018-05-26T06:53:02.589Z,98746.13
2018-05-26T06:55:30.062Z,98749.89
2018-05-26T06:57:57.555Z,98744.56
2018-05-26T07:00:26.042Z,98743.69
2018-05-26T07:02:53.528Z,98747.45
2018-05-26T07:05:20.998Z,98743.40
2018-05-26T07:07:48.738Z,98744.88
2018-05-26T07:10:16.197Z,98742.01
2018-05-26T07:12:43.742Z,98740.91
2018-05-26T07:15:11.206Z,98747.09
2018-05-26T07:17:38.694Z,98742.61
2018-05-26T07:20:06.165Z,98750.02
2018-05-26T07:22:33.655Z,98750.56
2018-05-26T07:25:01.135Z,98752.80
2018-05-26T07:27:28.702Z,98747.52
2018-05-26T07:29:56.231Z,98744.70
2018-05-26T07:32:23.717Z,98745.72
2018-05-26T07:34:51.295Z,98747.70
2018-05-26T07:37:18.850Z,98750.48
2018-05-26T07:39:46.330Z,98745.45
2018-05-26T07:42:13.798Z,98744.05
2018-05-26T07:44:41.289Z,98747.21
2018-05-26T07:47:08.779Z,98754.08
2018-05-26T07:49:36.287Z,98755.52
2018-05-26T07:52:03.786Z,98757.12
2018-05-26T07:54:31.276Z,98749.19
2018-05-26T07:56:58.759Z,98754.37
2018-05-26T07:59:26.261Z,98755.00
2018-05-26T08:01:53.755Z,98759.13
2018-05-26T08:04:21.242Z,98760.09
2018-05-26T08:06:48.978Z,98763.16
2018-05-26T08:09:16.526Z,98765.35
2018-05-26T08:11:43.990Z,98763.05
2018-05-26T08:14:11.626Z,98771.70
2018-05-26T08:16:39.090Z,98764.30
2018-05-26T08:19:06.583Z,98771.31
2018-05-26T08:21:34.042Z,98767.83
2018-05-26T08:24:01.522Z,98763.31
2018-05-26T08:26:29.075Z,98771.58
2018-05-26T08:28:56.570Z,98775.20
2018-05-26T08:31:24.030Z,98778.77
2018-05-26T08:33:51.530Z,98785.30
2018-05-26T08:36:19.027Z,98780.39
2018-05-26T08:38:46.492Z,98781.98
2018-05-26T08:41:13.999Z,98777.19
2018-05-26T08:43:41.469Z,98779.39
2018-05-26T08:46:09.062Z,98774.06
2018-05-26T08:48:36.593Z,98779.20
2018-05-26T08:51:04.096Z,98768.72
2018-05-26T08:53:31.593Z,98772.87
2018-05-26T08:55:59.106Z,98777.89
2018-05-26T08:58:26.567Z,98778.05
2018-05-26T09:00:54.062Z,98776.63
2018-05-26T09:03:21.527Z,98780.41
2018-05-26T09:05:49.010Z,98782.87
2018-05-26T09:08:16.498Z,98782.36
2018-05-26T09:10:43.994Z,98784.03
2018-05-26T09:13:11.530Z,98782.59
2018-05-26T09:15:39.016Z,98775.73
2018-05-26T09:18:06.542Z,98780.97
2018-05-26T09:20:34.054Z,98782.91
2018-05-26T09:23:01.523Z,98782.14
2018-05-26T09:25:29.096Z,98786.42
2018-05-26T09:27:56.582Z,98781.66
2018-05-26T09:30:24.070Z,98786.30
2018-05-26T09:32:51.577Z,98792.41
2018-05-26T09:35:19.085Z,98794.45
2018-05-26T09:37:46.554Z,98788.23
2018-05-26T09:40:14.016Z,98785.72
2018-05-26T09:42:41.500Z,98781.27
2018-05-26T09:45:08.997Z,98778.82
2018-05-26T09:47:36.487Z,98783.63
2018-05-26T09:50:03.957Z,98781.42
2018-05-26T09:52:31.459Z,98778.09
2018-05-26T09:54:58.967Z,98776.25
2018-05-26T09:57:26.478Z,98782.91
2018-05-26T09:59:53.939Z,98782.22
2018-05-26T10:02:21.427Z,98793.39
2018-05-26T10:04:48.898Z,98785.67
2018-05-26T10:07:16.448Z,98792.06
2018-05-26T10:09:43.974Z,98786.59
2018-05-26T10:12:11.454Z,98793.58
2018-05-26T10:14:38.918Z,98797.70
2018-05-26T10:17:06.426Z,98798.59
2018-05-26T10:19:33.974Z,98799.48
2018-05-26T10:22:04.585Z,98805.27
2018-05-26T10:24:32.075Z,98812.59
2018-05-26T10:26:59.581Z,98812.10
2018-05-26T10:29:27.119Z,98816.34
2018-05-26T10:31:54.659Z,98818.86
2018-05-26T10:34:22.118Z,98820.70
2018-05-26T10:36:49.601Z,98822.42
2018-05-26T10:39:17.284Z,98826.06
2018-05-26T10:41:44.834Z,98828.14
2018-05-26T10:44:12.295Z,98828.03
2018-05-26T10:46:39.756Z,98827.03
2018-05-26T10:49:07.251Z,98834.91
2018-05-26T10:51:34.741Z,98832.31
2018-05-26T10:54:02.246Z,98842.77
2018-05-26T10:56:29.717Z,98842.41
2018-05-26T10:58:57.217Z,98845.89
2018-05-26T11:01:24.698Z,98844.60
2018-05-26T11:03:52.187Z,98847.84
2018-05-26T11:06:19.654Z,98847.72
2018-05-26T11:08:47.155Z,98845.70
2018-05-26T11:11:14.711Z,98845.61
2018-05-26T11:13:42.229Z,98850.86
2018-05-26T11:16:09.819Z,98848.48
2018-05-26T11:18:37.242Z,98843.89
2018-05-26T11:21:04.722Z,98844.72
2018-05-26T11:23:33.041Z,98848.47
2018-05-26T11:26:00.476Z,98851.98
2018-05-26T11:28:28.089Z,98854.91
2018-05-26T11:30:55.612Z,98860.75
2018-05-26T11:33:23.121Z,98854.36
2018-05-26T11:35:50.597Z,98863.52
2018-05-26T11:38:18.164Z,98859.17
2018-05-26T11:40:45.637Z,98861.47
2018-05-26T11:43:13.231Z,98853.61
2018-05-26T11:45:40.723Z,98856.93
2018-05-26T11:48:08.206Z,98858.20
2018-05-26T11:50:35.691Z,98854.09
2018-05-26T11:53:03.238Z,98850.63
2018-05-26T11:55:30.746Z,98851.28
2018-05-26T11:57:58.235Z,98853.70
2018-05-26T12:00:25.730Z,98851.61
2018-05-26T12:02:53.645Z,98851.55
2018-05-26T12:05:21.162Z,98851.66
2018-05-26T12:07:48.635Z,98857.23
2018-05-26T12:10:16.158Z,98860.98
2018-05-26T12:12:43.667Z,98862.09
2018-05-26T12:15:11.157Z,98858.60
2018-05-26T12:17:38.626Z,98848.14
2018-05-26T12:20:06.106Z,98843.65
2018-05-26T12:22:33.589Z,98836.77
2018-05-26T12:25:01.114Z,98842.44
2018-05-26T12:27:28.594Z,98834.48
2018-05-26T12:29:56.119Z,98821.90
2018-05-26T12:32:23.587Z,98824.69
2018-05-26T12:34:51.073Z,98828.04
2018-05-26T12:37:18.562Z,98828.13
2018-05-26T12:39:46.054Z,98819.13
2018-05-26T12:42:13.542Z,98822.81
2018-05-26T12:44:41.068Z,98819.33
2018-05-26T12:47:08.573Z,98830.06
2018-05-26T12:49:36.042Z,98831.28
2018-05-26T12:52:03.608Z,98824.39
2018-05-26T12:54:31.106Z,98829.44
2018-05-26T12:56:58.590Z,98829.38
2018-05-26T12:59:26.206Z,98833.55
2018-05-26T13:01:53.742Z,98830.98
2018-05-26T13:04:21.209Z,98836.29
2018-05-26T13:06:48.728Z,98847.38
2018-05-26T13:09:16.235Z,98843.09
2018-05-26T13:11:43.862Z,98841.07
2018-05-26T13:14:11.330Z,98843.61
2018-05-26T13:16:39.047Z,98849.00
2018-05-26T13:19:06.531Z,98846.34
2018-05-26T13:21:34.101Z,98838.98
2018-05-26T13:24:01.663Z,98831.22
2018-05-26T13:26:29.183Z,98832.59
2018-05-26T13:28:56.642Z,98832.80
2018-05-26T13:31:24.142Z,98824.20
2018-05-26T13:33:51.634Z,98821.17
2018-05-26T13:36:19.114Z,98807.53
2018-05-26T13:38:46.584Z,98813.45
2018-05-26T13:41:14.145Z,98808.45
2018-05-26T13:43:41.628Z,98810.36
2018-05-26T13:46:09.122Z,98809.88
2018-05-26T13:48:36.647Z,98810.53
2018-05-26T13:51:04.225Z,98802.75
2018-05-26T13:53:32.079Z,98797.63
2018-05-26T13:55:59.570Z,98796.59
2018-05-26T13:58:26.950Z,98796.48
2018-05-26T14:00:54.436Z,98796.65
2018-05-26T14:03:21.931Z,98800.58
2018-05-26T14:05:49.395Z,98798.33
2018-05-26T14:08:16.915Z,98784.52
2018-05-26T14:10:44.434Z,98787.56
2018-05-26T14:13:12.018Z,98779.87
2018-05-26T14:15:39.481Z,98783.85
2018-05-26T14:18:06.970Z,98779.94
2018-05-26T14:20:34.458Z,98778.12
2018-05-26T14:23:01.950Z,98769.94
2018-05-26T14:25:29.506Z,98768.02
2018-05-26T14:27:57.048Z,98768.98
2018-05-26T14:30:24.511Z,98766.20
2018-05-26T14:32:52.017Z,98763.85
2018-05-26T14:35:19.513Z,98759.13
2018-05-26T14:37:47.000Z,98764.76
2018-05-26T14:40:14.462Z,98756.77
2018-05-26T14:42:41.949Z,98758.13
2018-05-26T14:45:09.441Z,98763.95
2018-05-26T14:47:37.008Z,98764.16
2018-05-26T14:50:04.497Z,98763.44
2018-05-26T14:52:31.986Z,98773.84
2018-05-26T14:54:59.715Z,98765.98
2018-05-26T14:57:27.248Z,98770.73
2018-05-26T15:00:01.708Z,98767.88
2018-05-26T15:02:41.711Z,98774.20
2018-05-26T15:13:28.045Z,98770.47
2018-05-26T15:15:57.247Z,98769.16
2018-05-26T15:33:02.342Z,98760.86
2018-05-26T15:35:36.427Z,98757.53
2018-05-26T15:49:43.538Z,98747.44
2018-05-26T17:32:56.486Z,98732.33
2018-05-26T17:47:28.583Z,98733.56
2018-05-26T17:50:09.901Z,98731.33
2018-05-26T17:55:29.801Z,98729.52
2018-05-26T17:57:57.409Z,98728.71
2018-05-26T18:00:24.914Z,98721.78
2018-05-26T18:02:53.014Z,98722.08
2018-05-26T18:05:20.494Z,98715.54
2018-05-26T18:07:48.002Z,98710.30
2018-05-26T18:10:15.557Z,98712.38
2018-05-26T18:12:43.089Z,98713.84
2018-05-26T18:15:10.752Z,98723.45
2018-05-26T18:17:39.261Z,98722.15
2018-05-26T18:20:08.763Z,98726.41
2018-05-26T18:22:40.104Z,98731.45
2018-05-26T18:25:07.851Z,98740.98
2018-05-26T18:27:35.350Z,98738.60
2018-05-26T18:30:02.876Z,98737.83
2018-05-26T18:32:30.448Z,98738.78
2018-05-26T18:34:57.947Z,98746.41
2018-05-26T18:37:25.486Z,98747.77
2018-05-26T18:39:52.942Z,98753.96
2018-05-26T18:42:20.430Z,98758.90
2018-05-26T18:44:47.906Z,98760.98
2018-05-26T18:47:15.428Z,98765.84
2018-05-26T18:49:42.939Z,98768.16
2018-05-26T18:52:10.427Z,98770.91
2018-05-26T18:54:37.950Z,98776.17
2018-05-26T18:57:05.432Z,98782.99
2018-05-26T18:59:32.953Z,98779.09
2018-05-26T19:02:00.447Z,98774.16
2018-05-26T19:04:27.946Z,98784.80
2018-05-26T19:06:55.576Z,98780.69
2018-05-26T19:09:23.230Z,98786.20
2018-05-26T19:11:50.895Z,98789.44
2018-05-26T19:14:18.395Z,98792.05
2018-05-26T19:16:45.922Z,98795.88
2018-05-26T19:19:13.408Z,98786.82
2018-05-26T19:21:40.902Z,98791.67
2018-05-26T19:24:08.549Z,98799.91
2018-05-26T19:26:36.221Z,98800.12
2018-05-26T19:29:03.778Z,98803.82
2018-05-26T19:31:31.239Z,98803.70
2018-05-26T19:33:58.810Z,98811.01
2018-05-26T19:36:26.283Z,98806.17
2018-05-26T19:38:53.890Z,98808.95
2018-05-26T19:41:21.358Z,98813.79
2018-05-26T19:43:48.925Z,98812.96
2018-05-26T19:46:16.475Z,98812.75
2018-05-26T19:48:44.155Z,98813.05
2018-05-26T19:51:11.654Z,98812.45
2018-05-26T19:53:39.150Z,98810.77
2018-05-26T19:56:06.707Z,98811.20
2018-05-26T19:58:34.218Z,98798.57
2018-05-26T20:01:01.779Z,98802.14
2018-05-26T20:03:29.401Z,98809.92
2018-05-26T20:05:56.946Z,98802.16
2018-05-26T20:08:24.483Z,98804.89
2018-05-26T20:10:52.189Z,98812.87
2018-05-26T20:13:19.690Z,98815.82
2018-05-26T20:15:47.184Z,98824.03
2018-05-26T20:18:14.650Z,98822.16
2018-05-26T20:20:42.244Z,98830.78
2018-05-26T20:23:09.754Z,98823.82
2018-05-26T20:25:37.243Z,98818.14
2018-05-26T20:28:04.759Z,98820.80
2018-05-26T20:30:32.306Z,98808.91
2018-05-26T20:32:59.786Z,98808.05
2018-05-26T20:35:27.357Z,98801.67
2018-05-26T20:37:55.022Z,98801.56
2018-05-26T20:40:22.602Z,98790.40
2018-05-26T20:42:50.100Z,98785.44
2018-05-26T20:45:17.615Z,98791.91
2018-05-26T20:47:45.267Z,98790.22
2018-05-26T20:50:12.819Z,98789.75
2018-05-26T20:52:40.322Z,98794.27
2018-05-26T20:55:07.849Z,98793.73
2018-05-26T20:57:35.382Z,98796.69
2018-05-26T21:00:02.965Z,98800.02
2018-05-26T21:02:30.495Z,98802.70
2018-05-26T21:04:57.974Z,98808.58
2018-05-26T21:07:25.439Z,98812.20
2018-05-26T21:09:55.865Z,98813.56
2018-05-26T21:12:23.510Z,98819.31
2018-05-26T21:14:51.044Z,98812.03
2018-05-26T21:17:18.624Z,98806.27
2018-05-26T21:19:46.179Z,98808.51
2018-05-26T21:22:13.674Z,98805.14
2018-05-26T21:24:41.178Z,98806.25
2018-05-26T21:27:08.682Z,98801.03
2018-05-26T21:29:36.228Z,98798.72
2018-05-26T21:32:03.872Z,98795.99
2018-05-26T21:34:31.467Z,98798.49
2018-05-26T21:36:59.002Z,98792.38
2018-05-26T21:39:26.471Z,98787.76
2018-05-26T21:41:53.977Z,98787.76
2018-05-26T21:44:21.451Z,98786.05
2018-05-26T21:46:48.945Z,98794.65
2018-05-26T21:49:16.443Z,98797.78
2018-05-26T21:51:44.039Z,98800.16
2018-05-26T21:54:11.509Z,98801.05
2018-05-26T21:56:39.059Z,98809.10
2018-05-26T21:59:06.530Z,98818.93
2018-05-26T22:01:34.035Z,98823.89
2018-05-26T22:04:01.498Z,98825.22
2018-05-26T22:06:28.980Z,98810.76
2018-05-26T22:08:56.557Z,98805.51
2018-05-26T22:11:24.108Z,98804.56
2018-05-26T22:13:51.569Z,98796.93
2018-05-26T22:16:19.106Z,98791.02
2018-05-26T22:18:46.786Z,98784.73
2018-05-26T22:21:14.323Z,98786.14
2018-05-26T22:23:41.814Z,98784.51
2018-05-26T22:26:09.300Z,98783.42
2018-05-26T22:28:36.810Z,98793.34
2018-05-26T22:31:04.324Z,98794.11
2018-05-26T22:33:31.941Z,98803.83
2018-05-26T22:35:59.502Z,98799.23
2018-05-26T22:38:27.018Z,98802.45
2018-05-26T22:40:54.514Z,98802.31
2018-05-26T22:43:22.099Z,98802.06
2018-05-26T22:45:49.631Z,98794.67
2018-05-26T22:48:17.242Z,98783.52
2018-05-26T22:50:44.751Z,98780.19
2018-05-26T22:53:12.239Z,98776.69
2018-05-26T22:55:39.781Z,98779.45
2018-05-26T22:58:07.274Z,98778.83
2018-05-26T23:00:34.758Z,98776.27
2018-05-26T23:03:02.284Z,98778.64
2018-05-26T23:05:29.801Z,98778.23
2018-05-26T23:07:57.360Z,98775.94
2018-05-26T23:10:25.014Z,98773.13
2018-05-26T23:12:52.562Z,98770.14
2018-05-26T23:15:20.146Z,98753.11
2018-05-26T23:17:47.689Z,98750.20
2018-05-26T23:20:15.210Z,98747.16
2018-05-26T23:22:42.761Z,98751.30
2018-05-26T23:25:10.294Z,98745.78
2018-05-26T23:27:37.844Z,98745.36
2018-05-26T23:30:05.550Z,98737.17
2018-05-26T23:32:33.035Z,98742.34
2018-05-26T23:35:00.670Z,98732.48
2018-05-26T23:37:28.162Z,98727.65
2018-05-26T23:39:55.718Z,98725.78
2018-05-26T23:42:23.224Z,98722.91
2018-05-26T23:44:50.757Z,98714.42
2018-05-26T23:47:18.280Z,98710.63
2018-05-26T23:49:45.742Z,98715.30
2018-05-26T23:52:13.227Z,98708.52
2018-05-26T23:54:40.702Z,98716.16
2018-05-26T23:57:08.191Z,98713.25
2018-05-26T23:59:35.706Z,98716.00
